sensor_id;sensor_type;location;lat;lon;timestamp;P1;durP1;ratioP1;P2;durP2;ratioP2
10009;SDS011;5044;48.652;9.250;2023-05-01T00:00:47;2.83;;;2.60;;
10009;SDS011;5044;48.652;9.250;2023-05-01T00:03:14;3.72;;;3.13;;
10009;SDS011;5044;48.652;9.250;2023-05-01T00:05:42;4.22;;;2.90;;
10009;SDS011;5044;48.652;9.250;2023-05-01T00:08:10;5.30;;;3.25;;
10009;SDS011;5044;48.652;9.250;2023-05-01T00:10:37;4.28;;;2.92;;
10009;SDS011;5044;48.652;9.250;2023-05-01T00:13:05;5.28;;;3.22;;
10009;SDS011;5044;48.652;9.250;2023-05-01T00:15:33;5.82;;;3.03;;
10009;SDS011;5044;48.652;9.250;2023-05-01T00:18:00;3.65;;;2.55;;
10009;SDS011;5044;48.652;9.250;2023-05-01T00:20:27;4.45;;;3.17;;
10009;SDS011;5044;48.652;9.250;2023-05-01T00:22:54;4.88;;;3.47;;
10009;SDS011;5044;48.652;9.250;2023-05-01T00:25:23;4.32;;;3.20;;
10009;SDS011;5044;48.652;9.250;2023-05-01T00:27:50;4.35;;;3.17;;
10009;SDS011;5044;48.652;9.250;2023-05-01T00:30:17;4.57;;;3.50;;
10009;SDS011;5044;48.652;9.250;2023-05-01T00:32:43;4.57;;;3.47;;
10009;SDS011;5044;48.652;9.250;2023-05-01T00:35:10;5.30;;;3.50;;
10009;SDS011;5044;48.652;9.250;2023-05-01T00:37:37;4.25;;;3.30;;
10009;SDS011;5044;48.652;9.250;2023-05-01T00:40:05;4.47;;;3.10;;
10009;SDS011;5044;48.652;9.250;2023-05-01T00:42:34;3.35;;;2.92;;
10009;SDS011;5044;48.652;9.250;2023-05-01T00:45:03;3.80;;;3.22;;
10009;SDS011;5044;48.652;9.250;2023-05-01T00:47:31;4.60;;;3.35;;
10009;SDS011;5044;48.652;9.250;2023-05-01T00:50:00;3.60;;;3.00;;
10009;SDS011;5044;48.652;9.250;2023-05-01T00:52:27;8.27;;;2.97;;
10009;SDS011;5044;48.652;9.250;2023-05-01T00:54:54;5.53;;;3.30;;
10009;SDS011;5044;48.652;9.250;2023-05-01T00:57:21;7.07;;;3.00;;
10009;SDS011;5044;48.652;9.250;2023-05-01T00:59:50;5.45;;;3.10;;
10009;SDS011;5044;48.652;9.250;2023-05-01T01:02:17;3.35;;;2.60;;
10009;SDS011;5044;48.652;9.250;2023-05-01T01:04:44;3.63;;;2.67;;
10009;SDS011;5044;48.652;9.250;2023-05-01T01:07:14;5.38;;;3.05;;
10009;SDS011;5044;48.652;9.250;2023-05-01T01:09:49;6.18;;;2.58;;
10009;SDS011;5044;48.652;9.250;2023-05-01T01:12:25;4.55;;;2.75;;
10009;SDS011;5044;48.652;9.250;2023-05-01T01:17:46;3.22;;;2.72;;
10009;SDS011;5044;48.652;9.250;2023-05-01T01:20:22;6.93;;;3.65;;
10009;SDS011;5044;48.652;9.250;2023-05-01T01:22:58;4.75;;;2.72;;
10009;SDS011;5044;48.652;9.250;2023-05-01T01:25:46;4.13;;;3.28;;
10009;SDS011;5044;48.652;9.250;2023-05-01T01:28:31;3.38;;;2.65;;
10009;SDS011;5044;48.652;9.250;2023-05-01T01:31:13;4.43;;;2.80;;
10009;SDS011;5044;48.652;9.250;2023-05-01T01:33:59;4.70;;;2.85;;
10009;SDS011;5044;48.652;9.250;2023-05-01T01:36:33;4.68;;;2.70;;
10009;SDS011;5044;48.652;9.250;2023-05-01T01:39:08;3.90;;;2.63;;
10009;SDS011;5044;48.652;9.250;2023-05-01T01:41:40;3.65;;;2.65;;
10009;SDS011;5044;48.652;9.250;2023-05-01T01:44:14;4.78;;;2.70;;
10009;SDS011;5044;48.652;9.250;2023-05-01T01:46:45;6.43;;;3.15;;
10009;SDS011;5044;48.652;9.250;2023-05-01T01:49:18;4.88;;;3.40;;
10009;SDS011;5044;48.652;9.250;2023-05-01T01:51:48;5.55;;;3.22;;
10009;SDS011;5044;48.652;9.250;2023-05-01T01:54:18;4.35;;;3.13;;
10009;SDS011;5044;48.652;9.250;2023-05-01T01:56:51;5.18;;;3.53;;
10009;SDS011;5044;48.652;9.250;2023-05-01T01:59:20;6.22;;;3.58;;
10009;SDS011;5044;48.652;9.250;2023-05-01T02:01:50;3.90;;;3.22;;
10009;SDS011;5044;48.652;9.250;2023-05-01T02:04:20;7.85;;;3.60;;
10009;SDS011;5044;48.652;9.250;2023-05-01T02:06:48;3.72;;;3.30;;
10009;SDS011;5044;48.652;9.250;2023-05-01T02:09:15;8.90;;;3.65;;
10009;SDS011;5044;48.652;9.250;2023-05-01T02:11:45;5.60;;;3.38;;
10009;SDS011;5044;48.652;9.250;2023-05-01T02:14:13;5.68;;;3.58;;
10009;SDS011;5044;48.652;9.250;2023-05-01T02:16:43;6.68;;;3.70;;
10009;SDS011;5044;48.652;9.250;2023-05-01T02:19:11;6.47;;;3.70;;
10009;SDS011;5044;48.652;9.250;2023-05-01T02:21:41;6.40;;;3.95;;
10009;SDS011;5044;48.652;9.250;2023-05-01T02:24:09;6.63;;;4.90;;
10009;SDS011;5044;48.652;9.250;2023-05-01T02:26:40;5.07;;;4.05;;
10009;SDS011;5044;48.652;9.250;2023-05-01T02:29:08;7.20;;;4.38;;
10009;SDS011;5044;48.652;9.250;2023-05-01T02:31:35;7.32;;;4.10;;
10009;SDS011;5044;48.652;9.250;2023-05-01T02:34:03;8.95;;;4.80;;
10009;SDS011;5044;48.652;9.250;2023-05-01T02:36:30;5.95;;;4.70;;
10009;SDS011;5044;48.652;9.250;2023-05-01T02:38:59;5.60;;;4.72;;
10009;SDS011;5044;48.652;9.250;2023-05-01T02:41:26;6.57;;;4.40;;
10009;SDS011;5044;48.652;9.250;2023-05-01T02:43:54;6.03;;;4.85;;
10009;SDS011;5044;48.652;9.250;2023-05-01T02:46:25;7.88;;;4.63;;
10009;SDS011;5044;48.652;9.250;2023-05-01T02:48:53;9.10;;;4.63;;
10009;SDS011;5044;48.652;9.250;2023-05-01T02:51:22;6.88;;;4.82;;
10009;SDS011;5044;48.652;9.250;2023-05-01T02:53:49;5.68;;;4.47;;
10009;SDS011;5044;48.652;9.250;2023-05-01T02:56:17;7.57;;;4.88;;
10009;SDS011;5044;48.652;9.250;2023-05-01T02:58:46;7.72;;;4.07;;
10009;SDS011;5044;48.652;9.250;2023-05-01T03:01:13;6.32;;;4.20;;
10009;SDS011;5044;48.652;9.250;2023-05-01T03:03:40;6.43;;;4.30;;
10009;SDS011;5044;48.652;9.250;2023-05-01T03:06:07;6.30;;;4.43;;
10009;SDS011;5044;48.652;9.250;2023-05-01T03:08:34;6.00;;;4.38;;
10009;SDS011;5044;48.652;9.250;2023-05-01T03:11:03;6.40;;;4.90;;
10009;SDS011;5044;48.652;9.250;2023-05-01T03:13:32;4.70;;;3.58;;
10009;SDS011;5044;48.652;9.250;2023-05-01T03:16:00;5.57;;;3.45;;
10009;SDS011;5044;48.652;9.250;2023-05-01T03:18:28;4.43;;;3.35;;
10009;SDS011;5044;48.652;9.250;2023-05-01T03:20:55;5.07;;;3.45;;
10009;SDS011;5044;48.652;9.250;2023-05-01T03:23:22;7.22;;;4.10;;
10009;SDS011;5044;48.652;9.250;2023-05-01T03:25:49;4.80;;;3.05;;
10009;SDS011;5044;48.652;9.250;2023-05-01T03:28:16;3.85;;;3.45;;
10009;SDS011;5044;48.652;9.250;2023-05-01T03:30:46;6.18;;;3.65;;
10009;SDS011;5044;48.652;9.250;2023-05-01T03:33:13;3.83;;;3.35;;
10009;SDS011;5044;48.652;9.250;2023-05-01T03:35:39;4.65;;;3.40;;
10009;SDS011;5044;48.652;9.250;2023-05-01T03:38:06;5.35;;;3.88;;
10009;SDS011;5044;48.652;9.250;2023-05-01T03:40:33;5.50;;;3.92;;
10009;SDS011;5044;48.652;9.250;2023-05-01T03:43:00;6.85;;;4.90;;
10009;SDS011;5044;48.652;9.250;2023-05-01T03:45:27;6.35;;;5.30;;
10009;SDS011;5044;48.652;9.250;2023-05-01T03:47:55;5.43;;;4.43;;
10009;SDS011;5044;48.652;9.250;2023-05-01T03:50:22;4.57;;;3.85;;
10009;SDS011;5044;48.652;9.250;2023-05-01T03:52:49;5.88;;;4.70;;
10009;SDS011;5044;48.652;9.250;2023-05-01T03:55:16;5.22;;;4.05;;
10009;SDS011;5044;48.652;9.250;2023-05-01T03:57:43;8.13;;;4.20;;
10009;SDS011;5044;48.652;9.250;2023-05-01T04:00:11;6.45;;;4.30;;
10009;SDS011;5044;48.652;9.250;2023-05-01T04:02:39;6.63;;;4.07;;
10009;SDS011;5044;48.652;9.250;2023-05-01T04:05:07;6.47;;;4.22;;
10009;SDS011;5044;48.652;9.250;2023-05-01T04:07:34;6.30;;;4.30;;
10009;SDS011;5044;48.652;9.250;2023-05-01T04:10:01;4.28;;;3.88;;
10009;SDS011;5044;48.652;9.250;2023-05-01T04:12:28;4.97;;;3.65;;
10009;SDS011;5044;48.652;9.250;2023-05-01T04:14:55;9.80;;;4.00;;
10009;SDS011;5044;48.652;9.250;2023-05-01T04:17:22;5.43;;;4.10;;
10009;SDS011;5044;48.652;9.250;2023-05-01T04:19:49;4.50;;;3.38;;
10009;SDS011;5044;48.652;9.250;2023-05-01T04:22:18;4.13;;;2.53;;
10009;SDS011;5044;48.652;9.250;2023-05-01T04:24:44;4.03;;;3.17;;
10009;SDS011;5044;48.652;9.250;2023-05-01T04:27:11;3.53;;;2.88;;
10009;SDS011;5044;48.652;9.250;2023-05-01T04:29:38;5.03;;;3.55;;
10009;SDS011;5044;48.652;9.250;2023-05-01T04:32:05;3.75;;;2.92;;
10009;SDS011;5044;48.652;9.250;2023-05-01T04:34:32;3.10;;;2.75;;
10009;SDS011;5044;48.652;9.250;2023-05-01T04:36:59;5.55;;;3.70;;
10009;SDS011;5044;48.652;9.250;2023-05-01T04:39:29;3.72;;;2.92;;
10009;SDS011;5044;48.652;9.250;2023-05-01T04:41:55;4.55;;;3.30;;
10009;SDS011;5044;48.652;9.250;2023-05-01T04:44:23;4.72;;;3.15;;
10009;SDS011;5044;48.652;9.250;2023-05-01T04:46:49;5.63;;;3.42;;
10009;SDS011;5044;48.652;9.250;2023-05-01T04:49:16;7.10;;;4.32;;
10009;SDS011;5044;48.652;9.250;2023-05-01T04:51:43;6.00;;;3.40;;
10009;SDS011;5044;48.652;9.250;2023-05-01T04:54:10;4.40;;;2.90;;
10009;SDS011;5044;48.652;9.250;2023-05-01T04:56:38;5.90;;;3.22;;
10009;SDS011;5044;48.652;9.250;2023-05-01T04:59:05;3.65;;;3.15;;
10009;SDS011;5044;48.652;9.250;2023-05-01T05:01:32;4.70;;;3.10;;
10009;SDS011;5044;48.652;9.250;2023-05-01T05:03:59;7.25;;;3.85;;
10009;SDS011;5044;48.652;9.250;2023-05-01T05:06:25;4.53;;;3.85;;
10009;SDS011;5044;48.652;9.250;2023-05-01T05:08:53;4.38;;;3.67;;
10009;SDS011;5044;48.652;9.250;2023-05-01T05:11:21;3.97;;;3.00;;
10009;SDS011;5044;48.652;9.250;2023-05-01T05:13:49;8.55;;;3.92;;
10009;SDS011;5044;48.652;9.250;2023-05-01T05:16:16;3.78;;;3.25;;
10009;SDS011;5044;48.652;9.250;2023-05-01T05:18:43;5.18;;;4.07;;
10009;SDS011;5044;48.652;9.250;2023-05-01T05:21:10;4.32;;;3.90;;
10009;SDS011;5044;48.652;9.250;2023-05-01T05:23:37;5.32;;;3.55;;
10009;SDS011;5044;48.652;9.250;2023-05-01T05:26:03;4.47;;;3.50;;
10009;SDS011;5044;48.652;9.250;2023-05-01T05:28:30;6.72;;;4.00;;
10009;SDS011;5044;48.652;9.250;2023-05-01T05:30:58;5.07;;;3.83;;
10009;SDS011;5044;48.652;9.250;2023-05-01T05:33:25;4.15;;;3.10;;
10009;SDS011;5044;48.652;9.250;2023-05-01T05:35:54;4.80;;;3.50;;
10009;SDS011;5044;48.652;9.250;2023-05-01T05:38:23;5.72;;;3.92;;
10009;SDS011;5044;48.652;9.250;2023-05-01T05:40:50;4.80;;;3.92;;
10009;SDS011;5044;48.652;9.250;2023-05-01T05:43:18;6.30;;;4.22;;
10009;SDS011;5044;48.652;9.250;2023-05-01T05:45:45;6.05;;;2.90;;
10009;SDS011;5044;48.652;9.250;2023-05-01T05:48:13;4.28;;;3.15;;
10009;SDS011;5044;48.652;9.250;2023-05-01T05:50:41;6.38;;;3.33;;
10009;SDS011;5044;48.652;9.250;2023-05-01T05:53:08;5.97;;;4.03;;
10009;SDS011;5044;48.652;9.250;2023-05-01T05:55:35;3.70;;;3.05;;
10009;SDS011;5044;48.652;9.250;2023-05-01T05:58:02;4.90;;;3.72;;
10009;SDS011;5044;48.652;9.250;2023-05-01T06:00:29;7.35;;;3.60;;
10009;SDS011;5044;48.652;9.250;2023-05-01T06:02:57;9.13;;;3.83;;
10009;SDS011;5044;48.652;9.250;2023-05-01T06:05:25;5.43;;;3.50;;
10009;SDS011;5044;48.652;9.250;2023-05-01T06:07:52;4.57;;;3.67;;
10009;SDS011;5044;48.652;9.250;2023-05-01T06:10:19;4.45;;;3.50;;
10009;SDS011;5044;48.652;9.250;2023-05-01T06:12:46;3.97;;;3.40;;
10009;SDS011;5044;48.652;9.250;2023-05-01T06:15:14;8.00;;;3.92;;
10009;SDS011;5044;48.652;9.250;2023-05-01T06:17:41;5.68;;;3.85;;
10009;SDS011;5044;48.652;9.250;2023-05-01T06:20:09;7.35;;;4.05;;
10009;SDS011;5044;48.652;9.250;2023-05-01T06:22:39;3.47;;;3.13;;
10009;SDS011;5044;48.652;9.250;2023-05-01T06:25:09;4.82;;;3.65;;
10009;SDS011;5044;48.652;9.250;2023-05-01T06:27:36;8.27;;;3.80;;
10009;SDS011;5044;48.652;9.250;2023-05-01T06:30:03;6.93;;;3.95;;
10009;SDS011;5044;48.652;9.250;2023-05-01T06:32:30;4.43;;;3.30;;
10009;SDS011;5044;48.652;9.250;2023-05-01T06:34:57;4.80;;;3.90;;
10009;SDS011;5044;48.652;9.250;2023-05-01T06:37:24;4.72;;;3.53;;
10009;SDS011;5044;48.652;9.250;2023-05-01T06:39:54;5.28;;;3.85;;
10009;SDS011;5044;48.652;9.250;2023-05-01T06:42:21;6.13;;;3.38;;
10009;SDS011;5044;48.652;9.250;2023-05-01T06:44:47;6.22;;;4.35;;
10009;SDS011;5044;48.652;9.250;2023-05-01T06:47:14;6.25;;;4.57;;
10009;SDS011;5044;48.652;9.250;2023-05-01T06:49:41;5.72;;;3.85;;
10009;SDS011;5044;48.652;9.250;2023-05-01T06:52:09;5.95;;;4.10;;
10009;SDS011;5044;48.652;9.250;2023-05-01T06:54:36;6.25;;;4.45;;
10009;SDS011;5044;48.652;9.250;2023-05-01T06:57:04;5.28;;;4.47;;
10009;SDS011;5044;48.652;9.250;2023-05-01T06:59:31;7.00;;;4.63;;
10009;SDS011;5044;48.652;9.250;2023-05-01T07:01:58;8.10;;;4.22;;
10009;SDS011;5044;48.652;9.250;2023-05-01T07:04:25;8.70;;;4.80;;
10009;SDS011;5044;48.652;9.250;2023-05-01T07:06:52;6.15;;;3.55;;
10009;SDS011;5044;48.652;9.250;2023-05-01T07:09:19;7.25;;;4.32;;
10009;SDS011;5044;48.652;9.250;2023-05-01T07:11:46;5.65;;;4.00;;
10009;SDS011;5044;48.652;9.250;2023-05-01T07:14:15;6.97;;;4.95;;
10009;SDS011;5044;48.652;9.250;2023-05-01T07:16:42;6.60;;;4.72;;
10009;SDS011;5044;48.652;9.250;2023-05-01T07:19:09;6.88;;;4.68;;
10009;SDS011;5044;48.652;9.250;2023-05-01T07:21:38;5.22;;;4.18;;
10009;SDS011;5044;48.652;9.250;2023-05-01T07:24:06;9.43;;;4.82;;
10009;SDS011;5044;48.652;9.250;2023-05-01T07:26:33;8.15;;;5.47;;
10009;SDS011;5044;48.652;9.250;2023-05-01T07:29:01;4.55;;;3.67;;
10009;SDS011;5044;48.652;9.250;2023-05-01T07:31:30;9.90;;;4.82;;
10009;SDS011;5044;48.652;9.250;2023-05-01T07:33:57;6.22;;;4.63;;
10009;SDS011;5044;48.652;9.250;2023-05-01T07:36:24;5.18;;;4.15;;
10009;SDS011;5044;48.652;9.250;2023-05-01T07:38:51;6.97;;;4.38;;
10009;SDS011;5044;48.652;9.250;2023-05-01T07:41:18;6.85;;;5.25;;
10009;SDS011;5044;48.652;9.250;2023-05-01T07:43:46;7.20;;;4.15;;
10009;SDS011;5044;48.652;9.250;2023-05-01T07:46:13;5.45;;;4.35;;
10009;SDS011;5044;48.652;9.250;2023-05-01T07:48:42;7.18;;;4.90;;
10009;SDS011;5044;48.652;9.250;2023-05-01T07:51:09;7.57;;;5.03;;
10009;SDS011;5044;48.652;9.250;2023-05-01T07:53:36;5.65;;;3.88;;
10009;SDS011;5044;48.652;9.250;2023-05-01T07:56:05;6.50;;;4.95;;
10009;SDS011;5044;48.652;9.250;2023-05-01T07:58:32;4.82;;;4.15;;
10009;SDS011;5044;48.652;9.250;2023-05-01T08:01:00;5.28;;;4.55;;
10009;SDS011;5044;48.652;9.250;2023-05-01T08:03:27;5.53;;;4.88;;
10009;SDS011;5044;48.652;9.250;2023-05-01T08:05:56;7.22;;;4.07;;
10009;SDS011;5044;48.652;9.250;2023-05-01T08:08:23;5.18;;;4.30;;
10009;SDS011;5044;48.652;9.250;2023-05-01T08:10:50;5.68;;;4.50;;
10009;SDS011;5044;48.652;9.250;2023-05-01T08:13:17;5.05;;;3.75;;
10009;SDS011;5044;48.652;9.250;2023-05-01T08:15:45;5.53;;;4.10;;
10009;SDS011;5044;48.652;9.250;2023-05-01T08:18:12;6.80;;;4.88;;
10009;SDS011;5044;48.652;9.250;2023-05-01T08:20:43;4.72;;;4.07;;
10009;SDS011;5044;48.652;9.250;2023-05-01T08:23:13;7.38;;;4.93;;
10009;SDS011;5044;48.652;9.250;2023-05-01T08:25:40;5.28;;;3.70;;
10009;SDS011;5044;48.652;9.250;2023-05-01T08:28:07;7.35;;;4.15;;
10009;SDS011;5044;48.652;9.250;2023-05-01T08:30:34;5.30;;;4.50;;
10009;SDS011;5044;48.652;9.250;2023-05-01T08:33:01;7.22;;;5.43;;
10009;SDS011;5044;48.652;9.250;2023-05-01T08:35:28;4.60;;;3.78;;
10009;SDS011;5044;48.652;9.250;2023-05-01T08:37:55;8.75;;;5.03;;
10009;SDS011;5044;48.652;9.250;2023-05-01T08:40:24;6.13;;;4.45;;
10009;SDS011;5044;48.652;9.250;2023-05-01T08:42:51;6.25;;;4.35;;
10009;SDS011;5044;48.652;9.250;2023-05-01T08:45:19;7.78;;;4.60;;
10009;SDS011;5044;48.652;9.250;2023-05-01T08:47:49;5.60;;;5.00;;
10009;SDS011;5044;48.652;9.250;2023-05-01T08:50:20;6.40;;;4.95;;
10009;SDS011;5044;48.652;9.250;2023-05-01T08:52:49;5.60;;;4.72;;
10009;SDS011;5044;48.652;9.250;2023-05-01T08:55:18;6.15;;;5.03;;
10009;SDS011;5044;48.652;9.250;2023-05-01T08:57:47;7.07;;;4.35;;
10009;SDS011;5044;48.652;9.250;2023-05-01T09:00:16;7.30;;;4.65;;
10009;SDS011;5044;48.652;9.250;2023-05-01T09:02:45;4.40;;;3.85;;
10009;SDS011;5044;48.652;9.250;2023-05-01T09:05:13;5.63;;;4.45;;
10009;SDS011;5044;48.652;9.250;2023-05-01T09:07:41;7.07;;;4.25;;
10009;SDS011;5044;48.652;9.250;2023-05-01T09:10:10;4.80;;;4.07;;
10009;SDS011;5044;48.652;9.250;2023-05-01T09:12:38;7.70;;;4.28;;
10009;SDS011;5044;48.652;9.250;2023-05-01T09:15:10;5.88;;;4.88;;
10009;SDS011;5044;48.652;9.250;2023-05-01T09:17:37;10.18;;;6.43;;
10009;SDS011;5044;48.652;9.250;2023-05-01T09:20:05;8.07;;;5.25;;
10009;SDS011;5044;48.652;9.250;2023-05-01T09:22:33;8.30;;;6.10;;
10009;SDS011;5044;48.652;9.250;2023-05-01T09:25:00;5.75;;;4.13;;
10009;SDS011;5044;48.652;9.250;2023-05-01T09:27:28;4.88;;;3.92;;
10009;SDS011;5044;48.652;9.250;2023-05-01T09:29:59;5.18;;;4.55;;
10009;SDS011;5044;48.652;9.250;2023-05-01T09:32:27;5.15;;;4.30;;
10009;SDS011;5044;48.652;9.250;2023-05-01T09:34:54;6.50;;;4.93;;
10009;SDS011;5044;48.652;9.250;2023-05-01T09:37:34;6.35;;;4.03;;
10009;SDS011;5044;48.652;9.250;2023-05-01T09:40:02;4.80;;;3.88;;
10009;SDS011;5044;48.652;9.250;2023-05-01T09:42:29;9.88;;;4.35;;
10009;SDS011;5044;48.652;9.250;2023-05-01T09:44:57;5.47;;;4.28;;
10009;SDS011;5044;48.652;9.250;2023-05-01T09:47:24;5.45;;;4.25;;
10009;SDS011;5044;48.652;9.250;2023-05-01T09:49:53;5.07;;;3.75;;
10009;SDS011;5044;48.652;9.250;2023-05-01T09:52:21;5.00;;;4.03;;
10009;SDS011;5044;48.652;9.250;2023-05-01T09:54:50;5.57;;;4.18;;
10009;SDS011;5044;48.652;9.250;2023-05-01T09:57:37;6.22;;;3.67;;
10009;SDS011;5044;48.652;9.250;2023-05-01T10:00:07;5.60;;;3.67;;
10009;SDS011;5044;48.652;9.250;2023-05-01T10:02:36;4.32;;;3.80;;
10009;SDS011;5044;48.652;9.250;2023-05-01T10:05:04;3.88;;;3.40;;
10009;SDS011;5044;48.652;9.250;2023-05-01T10:07:31;5.68;;;3.85;;
10009;SDS011;5044;48.652;9.250;2023-05-01T10:10:13;5.18;;;3.55;;
10009;SDS011;5044;48.652;9.250;2023-05-01T10:12:41;4.32;;;3.45;;
10009;SDS011;5044;48.652;9.250;2023-05-01T10:15:08;3.80;;;3.40;;
10009;SDS011;5044;48.652;9.250;2023-05-01T10:17:38;4.18;;;3.67;;
10009;SDS011;5044;48.652;9.250;2023-05-01T10:20:08;5.10;;;3.65;;
10009;SDS011;5044;48.652;9.250;2023-05-01T10:22:36;4.10;;;3.67;;
10009;SDS011;5044;48.652;9.250;2023-05-01T10:25:06;4.03;;;3.40;;
10009;SDS011;5044;48.652;9.250;2023-05-01T10:30:03;4.38;;;3.50;;
10009;SDS011;5044;48.652;9.250;2023-05-01T10:32:31;4.68;;;2.90;;
10009;SDS011;5044;48.652;9.250;2023-05-01T10:35:00;7.28;;;3.72;;
10009;SDS011;5044;48.652;9.250;2023-05-01T10:37:33;4.68;;;3.80;;
10009;SDS011;5044;48.652;9.250;2023-05-01T10:43:15;4.45;;;3.40;;
10009;SDS011;5044;48.652;9.250;2023-05-01T10:45:43;6.43;;;3.30;;
10009;SDS011;5044;48.652;9.250;2023-05-01T10:48:11;4.53;;;3.45;;
10009;SDS011;5044;48.652;9.250;2023-05-01T10:53:36;6.88;;;3.40;;
10009;SDS011;5044;48.652;9.250;2023-05-01T10:56:03;3.67;;;3.17;;
10009;SDS011;5044;48.652;9.250;2023-05-01T11:01:26;2.67;;;2.45;;
10009;SDS011;5044;48.652;9.250;2023-05-01T11:03:55;4.07;;;2.50;;
10009;SDS011;5044;48.652;9.250;2023-05-01T11:06:24;3.35;;;2.65;;
10009;SDS011;5044;48.652;9.250;2023-05-01T11:08:51;2.85;;;2.38;;
10009;SDS011;5044;48.652;9.250;2023-05-01T11:14:11;2.88;;;2.15;;
10009;SDS011;5044;48.652;9.250;2023-05-01T11:16:39;5.15;;;2.88;;
10009;SDS011;5044;48.652;9.250;2023-05-01T11:19:07;3.10;;;2.47;;
10009;SDS011;5044;48.652;9.250;2023-05-01T11:21:36;4.93;;;2.78;;
10009;SDS011;5044;48.652;9.250;2023-05-01T11:24:05;2.85;;;2.60;;
10009;SDS011;5044;48.652;9.250;2023-05-01T11:26:35;3.15;;;2.70;;
10009;SDS011;5044;48.652;9.250;2023-05-01T11:29:04;4.03;;;2.53;;
10009;SDS011;5044;48.652;9.250;2023-05-01T11:31:31;3.35;;;2.80;;
10009;SDS011;5044;48.652;9.250;2023-05-01T11:33:58;3.88;;;2.40;;
10009;SDS011;5044;48.652;9.250;2023-05-01T11:36:26;2.58;;;2.35;;
10009;SDS011;5044;48.652;9.250;2023-05-01T11:38:55;2.40;;;2.17;;
10009;SDS011;5044;48.652;9.250;2023-05-01T11:41:23;5.50;;;2.30;;
10009;SDS011;5044;48.652;9.250;2023-05-01T11:43:52;3.10;;;2.55;;
10009;SDS011;5044;48.652;9.250;2023-05-01T11:46:23;4.05;;;2.45;;
10009;SDS011;5044;48.652;9.250;2023-05-01T11:48:54;5.35;;;3.67;;
10009;SDS011;5044;48.652;9.250;2023-05-01T11:51:22;4.82;;;3.75;;
10009;SDS011;5044;48.652;9.250;2023-05-01T11:54:01;7.30;;;4.30;;
10009;SDS011;5044;48.652;9.250;2023-05-01T11:56:29;6.28;;;3.78;;
10009;SDS011;5044;48.652;9.250;2023-05-01T11:58:57;5.93;;;3.75;;
10009;SDS011;5044;48.652;9.250;2023-05-01T12:01:35;7.60;;;4.50;;
10009;SDS011;5044;48.652;9.250;2023-05-01T12:04:03;6.63;;;5.10;;
10009;SDS011;5044;48.652;9.250;2023-05-01T12:06:34;4.43;;;4.03;;
10009;SDS011;5044;48.652;9.250;2023-05-01T12:09:06;6.60;;;4.32;;
10009;SDS011;5044;48.652;9.250;2023-05-01T12:11:33;4.72;;;4.10;;
10009;SDS011;5044;48.652;9.250;2023-05-01T12:14:00;3.67;;;3.30;;
10009;SDS011;5044;48.652;9.250;2023-05-01T12:16:28;2.60;;;2.33;;
10009;SDS011;5044;48.652;9.250;2023-05-01T12:18:56;3.60;;;2.35;;
10009;SDS011;5044;48.652;9.250;2023-05-01T12:21:23;5.75;;;3.28;;
10009;SDS011;5044;48.652;9.250;2023-05-01T12:23:51;6.45;;;4.57;;
10009;SDS011;5044;48.652;9.250;2023-05-01T12:26:20;5.70;;;4.57;;
10009;SDS011;5044;48.652;9.250;2023-05-01T12:28:52;6.05;;;4.47;;
10009;SDS011;5044;48.652;9.250;2023-05-01T12:33:51;4.68;;;4.18;;
10009;SDS011;5044;48.652;9.250;2023-05-01T12:36:19;6.30;;;4.85;;
10009;SDS011;5044;48.652;9.250;2023-05-01T12:38:56;6.72;;;4.65;;
10009;SDS011;5044;48.652;9.250;2023-05-01T12:41:32;5.95;;;4.80;;
10009;SDS011;5044;48.652;9.250;2023-05-01T12:44:01;8.10;;;4.60;;
10009;SDS011;5044;48.652;9.250;2023-05-01T12:46:28;5.75;;;4.53;;
10009;SDS011;5044;48.652;9.250;2023-05-01T12:48:55;7.78;;;4.93;;
10009;SDS011;5044;48.652;9.250;2023-05-01T12:51:22;7.55;;;4.82;;
10009;SDS011;5044;48.652;9.250;2023-05-01T12:53:51;11.63;;;5.03;;
10009;SDS011;5044;48.652;9.250;2023-05-01T12:56:21;7.25;;;5.03;;
10009;SDS011;5044;48.652;9.250;2023-05-01T12:58:51;6.70;;;4.85;;
10009;SDS011;5044;48.652;9.250;2023-05-01T13:01:22;7.70;;;4.50;;
10009;SDS011;5044;48.652;9.250;2023-05-01T13:03:50;6.43;;;4.03;;
10009;SDS011;5044;48.652;9.250;2023-05-01T13:06:18;9.93;;;5.63;;
10009;SDS011;5044;48.652;9.250;2023-05-01T13:08:47;6.75;;;5.15;;
10009;SDS011;5044;48.652;9.250;2023-05-01T13:11:15;6.10;;;5.05;;
10009;SDS011;5044;48.652;9.250;2023-05-01T13:13:43;7.25;;;5.38;;
10009;SDS011;5044;48.652;9.250;2023-05-01T13:16:12;6.35;;;5.15;;
10009;SDS011;5044;48.652;9.250;2023-05-01T13:18:43;8.45;;;4.90;;
10009;SDS011;5044;48.652;9.250;2023-05-01T13:23:40;7.35;;;5.28;;
10009;SDS011;5044;48.652;9.250;2023-05-01T13:26:08;5.07;;;4.57;;
10009;SDS011;5044;48.652;9.250;2023-05-01T13:28:40;6.00;;;4.72;;
10009;SDS011;5044;48.652;9.250;2023-05-01T13:31:12;5.50;;;4.50;;
10009;SDS011;5044;48.652;9.250;2023-05-01T13:33:40;5.55;;;4.95;;
10009;SDS011;5044;48.652;9.250;2023-05-01T13:36:08;6.97;;;5.25;;
10009;SDS011;5044;48.652;9.250;2023-05-01T13:38:40;7.78;;;5.88;;
10009;SDS011;5044;48.652;9.250;2023-05-01T13:41:12;7.35;;;5.78;;
10009;SDS011;5044;48.652;9.250;2023-05-01T13:43:41;9.73;;;6.10;;
10009;SDS011;5044;48.652;9.250;2023-05-01T13:46:13;5.75;;;5.07;;
10009;SDS011;5044;48.652;9.250;2023-05-01T13:48:42;8.10;;;5.82;;
10009;SDS011;5044;48.652;9.250;2023-05-01T13:51:22;6.45;;;5.47;;
10009;SDS011;5044;48.652;9.250;2023-05-01T13:53:50;6.93;;;5.50;;
10009;SDS011;5044;48.652;9.250;2023-05-01T13:56:20;8.45;;;6.40;;
10009;SDS011;5044;48.652;9.250;2023-05-01T13:58:48;7.70;;;5.60;;
10009;SDS011;5044;48.652;9.250;2023-05-01T14:01:22;6.25;;;5.65;;
10009;SDS011;5044;48.652;9.250;2023-05-01T14:03:52;7.15;;;6.07;;
10009;SDS011;5044;48.652;9.250;2023-05-01T14:06:23;7.82;;;5.95;;
10009;SDS011;5044;48.652;9.250;2023-05-01T14:08:54;6.80;;;5.95;;
10009;SDS011;5044;48.652;9.250;2023-05-01T14:11:24;8.77;;;5.65;;
10009;SDS011;5044;48.652;9.250;2023-05-01T14:13:53;7.25;;;5.03;;
10009;SDS011;5044;48.652;9.250;2023-05-01T14:16:38;8.40;;;5.70;;
10009;SDS011;5044;48.652;9.250;2023-05-01T14:19:14;8.27;;;6.55;;
10009;SDS011;5044;48.652;9.250;2023-05-01T14:21:56;6.72;;;5.70;;
10009;SDS011;5044;48.652;9.250;2023-05-01T14:24:39;8.93;;;6.97;;
10009;SDS011;5044;48.652;9.250;2023-05-01T14:27:12;8.27;;;6.17;;
10009;SDS011;5044;48.652;9.250;2023-05-01T14:29:43;6.15;;;5.50;;
10009;SDS011;5044;48.652;9.250;2023-05-01T14:32:16;7.68;;;6.32;;
10009;SDS011;5044;48.652;9.250;2023-05-01T14:34:49;8.35;;;5.55;;
10009;SDS011;5044;48.652;9.250;2023-05-01T14:37:18;11.25;;;6.10;;
10009;SDS011;5044;48.652;9.250;2023-05-01T14:39:51;10.65;;;8.10;;
10009;SDS011;5044;48.652;9.250;2023-05-01T14:42:23;11.43;;;6.55;;
10009;SDS011;5044;48.652;9.250;2023-05-01T14:45:09;13.02;;;8.18;;
10009;SDS011;5044;48.652;9.250;2023-05-01T14:47:48;12.95;;;8.23;;
10009;SDS011;5044;48.652;9.250;2023-05-01T14:50:18;12.48;;;7.38;;
10009;SDS011;5044;48.652;9.250;2023-05-01T14:52:56;7.65;;;6.28;;
10009;SDS011;5044;48.652;9.250;2023-05-01T14:55:40;8.10;;;6.45;;
10009;SDS011;5044;48.652;9.250;2023-05-01T14:58:10;10.15;;;5.90;;
10009;SDS011;5044;48.652;9.250;2023-05-01T15:00:47;6.28;;;5.68;;
10009;SDS011;5044;48.652;9.250;2023-05-01T15:03:22;7.38;;;6.55;;
10009;SDS011;5044;48.652;9.250;2023-05-01T15:06:04;8.32;;;5.95;;
10009;SDS011;5044;48.652;9.250;2023-05-01T15:08:37;6.25;;;5.38;;
10009;SDS011;5044;48.652;9.250;2023-05-01T15:11:12;7.63;;;6.57;;
10009;SDS011;5044;48.652;9.250;2023-05-01T15:13:42;12.30;;;7.43;;
10009;SDS011;5044;48.652;9.250;2023-05-01T15:16:14;7.80;;;6.00;;
10009;SDS011;5044;48.652;9.250;2023-05-01T15:21:36;12.25;;;7.72;;
10009;SDS011;5044;48.652;9.250;2023-05-01T15:24:07;12.75;;;7.10;;
10009;SDS011;5044;48.652;9.250;2023-05-01T15:26:56;10.88;;;6.55;;
10009;SDS011;5044;48.652;9.250;2023-05-01T15:29:35;11.20;;;5.97;;
10009;SDS011;5044;48.652;9.250;2023-05-01T15:32:20;9.23;;;5.85;;
10009;SDS011;5044;48.652;9.250;2023-05-01T15:37:56;7.97;;;5.13;;
10009;SDS011;5044;48.652;9.250;2023-05-01T15:40:26;8.52;;;5.75;;